Lyons, Ohio
Current Conditions -  °F | °C
As of 3:35 AM on Friday 21 Nov 2014 (Local Time) from KUSE Reporting Station
Overcast Overcast  
Wind Chill: 11°   Ceiling: 5000
Heat Index: 18°   Visibility: 10mi
Dew Point: 12°   Wind: 5mph
Humidity: 79%   Direction: 290°WNW
Pressure: 30.3"   Gusts: NA
Location:  41.7°N, 84.07°W
Report Text: KUSE 210835Z AUTO 29004KT 10SM OVC050 M08/M11 A3030 RMK AO2
Loading
Personal Weather Stations






























Interactive Weather Map New forecast layout! Learn more

10-Day Weather Forecast

Advertisements
Track Severe Weather on mobile